Nearby METAR Reports

 

KMTN - Baltimore/Martin, Maryland, USA
Distance from station: SSE 8mi, 13km
Updated: Sat, 04-Jul-2015 5:55pm EDT
Overcast
Overcast
 Wind from calm
Wind: Calm
Temperature: 73°F , 23°C
Dew Point: 72°F , 22°C
Humidity: 94%
Barometer: 29.94 inHg , 1013.9 hPa
Clouds: Overcast
Visibility: 10 miles , 16 km
Cloud details: Partly cloudy 4000 ft
Overcast 6000 ft
2015/07/04 21:55 KMTN 042155Z 00000KT 10SM SCT040 OVC060 23/22 A2994
KDMH - Baltimore/Dwntwn, Maryland, USA
Distance from station: SW 12mi, 19km
Updated: Sat, 04-Jul-2015 5:54pm EDT

 
Temperature: 73°F , 23°C
Dew Point: 66°F , 19°C
Humidity: 78%
Barometer: 29.94 inHg , 1013.9 hPa
2015/07/04 21:54 KDMH 042154Z AUTO 23/19 A2994 RMK AO1 SLP137 T02330194
 
KBWI - Balto/Wash Intl, Maryland, USA
Distance from station: SSW 20mi, 33km
Updated: Sat, 04-Jul-2015 6:09pm EDT
Overcast
Overcast
 Wind from ENE
Wind: ENE 3 mph , 6 km/h
Temperature: 73°F , 23°C
Dew Point: 68°F , 20°C
Humidity: 83%
Barometer: 29.93 inHg , 1013.5 hPa
Clouds: Overcast
Visibility: 10 miles , 16 km
Cloud details: Partly cloudy 1700 ft
Mostly cloudy 3400 ft
Overcast 20000 ft
2015/07/04 22:09 KBWI 042209Z 07003KT 10SM SCT017 BKN034 OVC200 23/20 A2993 RMK AO2 $
KDMW - Carroll Cnty, Maryland, USA
Distance from station: WNW 30mi, 48km
Updated: Sat, 04-Jul-2015 6:05pm EDT
Mist, Overcast
Mist, Overcast
 Wind from NE
Wind: NE 3 mph , 6 km/h
Temperature: 70°F , 21°C
Dew Point: 66°F , 19°C
Humidity: 88%
Barometer: 29.96 inHg , 1014.6 hPa
Summary: Mist
Clouds: Overcast
Visibility: 4 miles , 6 km
Cloud details: Overcast 500 ft
2015/07/04 22:05 KDMW 042205Z AUTO 04003KT 4SM BR OVC005 21/19 A2996 RMK AO2
 
KNAK - Annapolis/Naval, Maryland, USA
Distance from station: S 30mi, 48km
Updated: Sat, 04-Jul-2015 5:54pm EDT
Light rain, Mostly cloudy
Light rain, Mostly cloudy
 Wind from calm
Wind: Calm
Temperature: 73°F , 23°C
Dew Point: 70°F , 21°C
Humidity: 89%
Barometer: 29.92 inHg , 1013.2 hPa
Summary: Light rain
Clouds: Mostly cloudy
Visibility: 4 miles , 6 km
Cloud details: Partly cloudy 6500 ft
Mostly cloudy 11000 ft
2015/07/04 21:54 KNAK 042154Z AUTO 00000KT 4SM -RA SCT065 BKN110 23/21 A2992 RMK AO2 RAB14 SLP134 P0003 T02330206
KW29 - Stevensville, Maryland, USA
Distance from station: SSE 31mi, 50km
Updated: Sat, 04-Jul-2015 6:06pm EDT
Rain
Rain
 Wind from calm
Wind: Calm
Temperature: 73°F , 23°C
Dew Point: 70°F , 21°C
Humidity: 89%
Barometer: 29.93 inHg , 1013.5 hPa
Summary: Rain
Visibility: 7 miles , 11 km
2015/07/04 22:06 KW29 042206Z AUTO 00000KT 7SM RA 23/21 A2993 RMK AO1 LTG DSNT SW
 
KCGS - College Park, Maryland, USA
Distance from station: SW 38mi, 61km
Updated: Sat, 04-Jul-2015 6:00pm EDT
Mostly cloudy
Mostly cloudy
 Wind from calm
Wind: Calm
Temperature: 73°F , 23°C
Dew Point: 72°F , 22°C
Humidity: 94%
Barometer: 29.93 inHg , 1013.5 hPa
Clouds: Mostly cloudy
Visibility: 10 miles , 16 km
Cloud details: Partly cloudy 700 ft
Partly cloudy 1200 ft
Mostly cloudy 1900 ft
2015/07/04 22:00 KCGS 042200Z AUTO 00000KT 10SM SCT007 SCT012 BKN019 23/22 A2993 RMK AO1
KGAI - Gaithersburg, Maryland, USA
Distance from station: WSW 40mi, 65km
Updated: Sat, 04-Jul-2015 6:15pm EDT
Overcast
Overcast
 Wind from calm
Wind: Calm
Temperature: 73°F , 23°C
Dew Point: 70°F , 21°C
Humidity: 89%
Barometer: 29.98 inHg , 1015.2 hPa
Clouds: Overcast
Visibility: 9 miles , 14 km
Cloud details: Partly cloudy 2500 ft
Overcast 3300 ft
2015/07/04 22:15 KGAI 042215Z AUTO 00000KT 9SM SCT025 OVC033 23/21 A2998 RMK AO1
 
KTHV - York, Pennsylvania, USA
Distance from station: NNW 40mi, 65km
Updated: Sat, 04-Jul-2015 5:59pm EDT
Mist, Overcast
Mist, Overcast
 Wind from NE
Wind: NE 5 mph , 7 km/h
Temperature: 68°F , 20°C
Dew Point: 66°F , 19°C
Humidity: 94%
Barometer: 29.96 inHg , 1014.6 hPa
Summary: Mist
Clouds: Overcast
Visibility: 3 miles , 5 km
Cloud details: Partly cloudy 600 ft
Overcast 1200 ft
2015/07/04 21:59 KTHV 042159Z AUTO 04004KT 3SM BR SCT006 OVC012 20/19 A2996 RMK AO2 T02000189
KFDK - Frederick, Maryland, USA
Distance from station: W 47mi, 75km
Updated: Sat, 04-Jul-2015 5:50pm EDT
Mostly cloudy
Mostly cloudy
 Wind from NE
Wind: NE 6 mph , 9 km/h
Temperature: 77°F , 25°C
Dew Point: 72°F , 22°C
Humidity: 83%
Barometer: 29.96 inHg , 1014.6 hPa
Clouds: Mostly cloudy
Visibility: 7 miles , 11 km
Cloud details: Mostly cloudy 1500 ft
2015/07/04 21:50 KFDK 042150Z 04005KT 7SM BKN015 25/22 A2996
 
KESN - Easton/Newnam, Maryland, USA
Distance from station: SSE 48mi, 78km
Updated: Sat, 04-Jul-2015 5:50pm EDT
Mostly cloudy
Mostly cloudy
 Wind from calm
Wind: Calm
Temperature: 81°F , 27°C
Heat Index: 85°F , 29°C
Dew Point: 70°F , 21°C
Humidity: 70%
Barometer: 29.95 inHg , 1014.2 hPa
Clouds: Mostly cloudy
Visibility: 10 miles , 16 km
Cloud details: Partly cloudy 3000 ft
Mostly cloudy 6000 ft
2015/07/04 21:50 KESN 042150Z 00000KT 10SM SCT030 BKN060 27/21 A2995
KDCA - Washington/Natl, Washington D.c., USA
Distance from station: SW 49mi, 79km
Updated: Sat, 04-Jul-2015 5:52pm EDT
Overcast
Overcast
 Wind from ESE
Wind: ESE 3 mph , 6 km/h
Temperature: 75°F , 24°C
Dew Point: 70°F , 21°C
Humidity: 83%
Barometer: 29.92 inHg , 1013.2 hPa
Clouds: Overcast
Visibility: 10 miles , 16 km
Cloud details: Few Clouds 1500 ft
Partly cloudy 3300 ft
Mostly cloudy 15000 ft
Overcast 20000 ft
2015/07/04 21:52 KDCA 042152Z 12003KT 10SM FEW015 SCT033CB BKN150 OVC200 24/21 A2992 RMK AO2 TSE15RAE48 SLP131 CB VC E AND DSNT SE-S MOV SE P0019 T02440211
 
KLNS - Lancaster, Pennsylvania, USA
Distance from station: N 49mi, 79km
Updated: Sat, 04-Jul-2015 5:53pm EDT
Overcast
Overcast
 Wind from NNE
Wind: NNE 7 mph , 11 km/h
Temperature: 68°F , 20°C
Dew Point: 63°F , 17°C
Humidity: 83%
Barometer: 29.96 inHg , 1014.6 hPa
Clouds: Overcast
Visibility: 9 miles , 14 km
Cloud details: Overcast 1900 ft
2015/07/04 21:53 KLNS 042153Z 02006KT 9SM OVC019 20/17 A2996 RMK AO2 RAB37E46 SLP142 P0000 T02000172
KILG - Wilmington, Delaware, USA
Distance from station: ENE 50mi, 81km
Updated: Sat, 04-Jul-2015 5:51pm EDT
Overcast
Overcast
 Wind from NE
Wind: NE 12 mph , 19 km/h
Temperature: 73°F , 23°C
Dew Point: 63°F , 17°C
Humidity: 69%
Barometer: 29.94 inHg , 1013.9 hPa
Clouds: Overcast
Visibility: 10 miles , 16 km
Cloud details: Overcast 3100 ft
2015/07/04 21:51 KILG 042151Z 05010KT 10SM OVC031 23/17 A2994 RMK AO2 SLP138 T02280167